sze, 2017 december 13. @ 08:29 (Europe/Budapest) | Időzóna választás

Keresés

Keresés

Találd meg a csapatokat és bajnokságokat gyorsan

Hasonlitás

Hasonlitás

Klikkelj erre h2h az ikonra bárhol a csapatok összehasonlitásához és a statisztikák megtekintéséhez

Mérkőzések

Mérkőzések

Nézd meg a mai mérkőzések, a holnapi mérkőzések, a tegnapi eredmények listáját vagy bármely dátum mérkőzéseit a naptár segitségével


Legnépszerűbb bajnokságok


Szeretsz fogadni? Látogasd meg a Sportfogadás weboldalunkat!

Mérkőzések - 2017.10.31

Csoportosítás: bajnokság szerint | idő szerint
Idő Hazai Eredmény Vendég 1 X 2 H2H
 Futball Anglia Championship 2017/2018
20:45 Leeds 1 : 2 Derby 2.42 3.11 3.02
20:45 Burton 2 : 4 Barnsley 2.60 3.24 2.70
20:45 Sunderland 3 : 3 Bolton 1.71 3.64 4.93
20:45 Hull 1 : 3 Middlesbrough 2.77 3.27 2.52
20:45 Sheffield Wednesday 2 : 1 Millwall 1.90 3.36 4.15
20:45 Fulham 0 : 2 Bristol City 1.97 3.70 3.50
20:45 Q.P.R. 1 : 0 Sheffield United 2.57 3.50 2.58
20:45 Norwich 0 : 2 Wolverhampton 2.79 3.30 2.49
20:45 Cardiff 3 : 1 Ipswich 1.60 3.77 5.60
21:00 Reading 3 : 1 Nottingham 2.32 3.21 3.12
 Futball Anglia LDV Trophy 2017/2018
20:30 Doncaster 2 : 1 ot(p) Scunthorpe 2.43 3.22 2.61
20:45 AFC Wimbledon 1 : 2 Luton 2.28 3.23 2.84
20:45 Forest Green 0 : 2 Swansea U23 2.49 3.26 2.52
20:45 Bristol Rovers 1 : 3 West Ham U23 1.65 3.70 4.40
20:45 Swindon 1 : 0 Wycombe 2.24 3.22 2.91
20:45 Mansfield 1 : 0 Everton U23 2.05 3.30 3.27
 Futball Anglia League One 2017/2018
20:45 Blackburn 2 : 2 Fleetwood Town 1.76 3.38 4.83
 Futball Argentina Primera Division 2017/2018
01:05 Tigre Victoria 1 : 1 Rosario 2.95 3.01 2.35
 Futball Ausztria 1. Liga 2017/2018
18:30 Ried SV 2 : 3 Hartberg TSV 1.61 3.76 4.68
18:30 Kapfenberger SV 4 : 1 Floridsdorfer AC 1.68 3.62 4.31
18:30 Blau-Weiss Linz 1 : 2 Austria Lustenau 2.69 3.38 2.30
18:30 Wattens 0 : 1 FC Wiener Neustadt 2.75 3.24 2.31
 Kosárlabda Ausztria Basketball Bundesliga 2017/2018
20:00 Traiskirchen Lions 100 : 96 ot Wels WBC 1.13 - 4.90
 Jégkorong Ausztria Eishockey Liga 2017/2018
17:30 Medveščak Zagreb KHL 1 : 0 Znojmo 1.71 4.85 3.39
19:15 Bolzano 4 : 2 Linz 2.19 4.45 2.46
 Jégkorong CHL Kontinental Hockey League 2017/2018
10:30 Chabarovsk Amur 3 : 1 Kazaň 3.62 4.03 1.85
10:30 Admiral Vladivostok 5 : 1 Ufa 2.93 4.12 2.08
12:30 Red Star Kunlun 2 : 0 Nižněkamsk 2.23 3.85 2.80
15:00 Jekatěrinburg 6 : 4 Togliatti 1.54 4.58 4.95
17:00 Jaroslavl 0 : 1 Čerepovec 1.49 4.74 5.31
17:30 Petrohrad 3 : 2 Dinamo Riga 1.12 9.88 13.75
17:30 Dynamo Moskva 0 : 1 ot(p) Nižnyj Novgorod 2.21 3.75 2.81
17:30 Dynamo Minsk 5 : 4 ot(p) Spartak Moskva 1.99 4.06 3.09
 Futball Csehország 2. liga 2017/2018
18:00 Znojmo 3 : 2 Vlašim 1.93 3.40 3.33
 Jégkorong Csehország Extraleague 2017/2018
17:30 Zlín 1 : 2 ot(p) Jihlava 1.79 4.26 3.54
 Kosárlabda Dánia 1st League M 2017/2018
19:00 Stevnsgade SuperMen 73 : 96 Horsholm 16.00 - 1.00
 Kézilabda Dánia 1st League W 2017/2018
19:30 Randers HK 20 : 22 Midtjylland 6.10 13.00 1.18
 Jégkorong Dánia SuperBest-ligaen 2017/2018
19:00 Gentofte IK 3 : 1 Esbjerg 2.44 4.12 2.30
19:00 Aalborg 3 : 1 Herning 2.61 4.14 2.15
19:00 Rungsted 3 : 2 Sonderjylland IK 1.88 4.24 3.15
19:00 Rodovre Kobenhavn 4 : 1 Totempo Hvidovre HVIK 1.39 5.46 5.47
19:00 Odense 5 : 1 Herlev 1.29 6.38 6.56
 Futball Egyesült Államok MLS 2017
02:30 Houston Dynamo 0 : 0 Portland Timbers 2.17 3.23 3.14
 Kosárlabda Észtország 1st League M 2017/2018
18:05 Kalev Tallinn BC 97 : 73 Valga Welg 1.08 - 6.38
 Kosárlabda FIBA EuroCup M 2017/2018
20:00 Morabanc Andorra 79 : 61 Levallois 1.32 14.00 3.30
20:30 Limoges CSP 92 : 83 Partizan Belgrad 1.15 14.00 5.25
 Futball Horvátország HR Nogometni Cup 2017/2018
13:30 Novigrad 0 : 1(p) Dinamo Zagreb 27.00 10.80 1.05
 Jégkorong Jégkorong NHL 2017/2018
00:30 Ottawa 3 : 8 Montreal 2.41 3.87 2.57
00:30 Florida 5 : 8 Tampa Bay 2.67 3.95 2.31
01:00 St. Louis 4 : 2 Los Angeles 2.30 3.78 2.73
03:00 Vancouver 1 : 2 ot Dallas 2.82 3.87 2.22
03:30 San Jose 3 : 2 Toronto 2.39 4.00 2.53
 Jégkorong Jégkorong Bajnokok Ligája Champions Hockey League 2017/2018
17:00 Liberec 2 : 3 Frolunda 3.11 4.35 1.88
18:00 Jyp Jyväskylä 3 : 1 Tappara Tampere 2.23 4.02 2.60
18:30 Malmo IF 1 : 2 Třinec 2.04 4.20 2.85
19:00 Kometa Brno 4 : 3 Zug 2.10 4.22 2.78
19:30 Salzburg 2 : 1 Vaxjö Lakers HC 3.75 4.81 1.64
19:30 Mannheim 2 : 3 Brynas Gavle 2.42 4.15 2.31
19:45 SC Curych 3 : 1 Nottingham 1.23 7.06 7.56
19:45 Bern 2 : 3 München 1.80 4.46 3.26
 Futball Kolumbia Primera División 2017
02:00 Atlético Bucaramanga 1 : 3 Atlético Junior 1.96 3.03 3.78
21:15 Atlético Huila 1 : 0 Once Caldas 1.65 3.17 5.54
 Kosárlabda Kosárlabda NBA 2017/2018
00:30 Miami 122 : 125 ot Minnesota 2.40 10.50 1.62
00:30 New York 116 : 110 Denver 2.35 10.50 1.65
00:30 Boston 108 : 94 San Antonio 1.68 10.50 2.30
01:00 Memphis 99 : 104 Charlotte Bobcats 1.60 10.50 2.45
01:00 Houston 107 : 115 Philadelphia 1.35 12.00 3.30
01:00 New Orleans 99 : 115 Orlando 1.38 11.50 3.10
02:00 Utah 104 : 89 Dallas 1.35 11.50 3.30
03:00 Portland 85 : 99 Toronto 1.72 10.50 2.20
03:30 L.A.Clippers 113 : 141 Golden State 2.85 12.00 1.45
 Kézilabda Lengyelország 1.liga M 2017/2018
18:30 Kielce Vive KS 41 : 22 Stal Mielec - - -
 Kézilabda Lengyelország 1.liga W 2017/2018
18:00 Lublin MKS 28 : 25 Laczpol Gdynia 1.19 13.50 5.50
 Jégkorong Lengyelország Ekstraliga 2017/2018
12:00 Sosnoviec SMS 0 : 9 Jastrzebie JKH GKS - - -
18:00 Tychy 1 : 0 Podhale Nowy Targ 1.29 6.56 5.44
18:30 Kraków 3 : 0 Orlik Opole 1.17 8.06 8.13
18:30 Stoczniowiec Gdaňsk 1 : 6 Katowice 3.19 5.13 1.66
19:00 Janów 5 : 7 Unia Osvětim 4.47 5.93 1.39
 Kosárlabda Lengyelország Ekstraliga M 2017/2018
19:00 Anwil Włocławek 80 : 57 Lubin SMK 1.07 14.00 7.00
 Futball Litvánia A Lyga 2017
17:00 Žalgiris Vilnius 1 : 0 Traku FK 1.82 3.33 3.84
 Jégkorong Németország 2. Bundesliga 2017/2018
17:00 Kaufbeuren 7 : 1 Lausitzer Füchse 1.66 4.70 3.55
18:30 Freiburg 4 : 5(p) Riessersee 2.54 4.41 2.10
18:30 Ravensburg 6 : 3 Heilbronn 1.68 4.85 3.38
 Jégkorong Németország DEL 2017/2018
14:00 Schwenningen 1 : 4 Bremerhaven 2.12 4.33 2.68
16:30 Köln 3 : 2 ot Ingolstadt ERC 1.92 4.47 3.05
16:30 Norimberk 2 : 1 Augsburg 1.76 4.58 3.50
 Jégkorong Norvégia Eliteserien 2017/2018
19:00 Frisk/Asker 2 : 1 Stavanger 1.74 4.53 3.49
 Futball Skócia Premier League 2017/2018
20:45 Kilmarnock FC 0 : 3 Hibernian 4.98 3.65 1.65
 Futball Spanyolország Segunda B - Group II 2017/2018
20:15 San Sebastian Real B 0 : 0 Leioa 1.82 3.36 3.74
 Jégkorong Svájc Nationalliga A 2017/2018
19:45 Langnau 2 : 3 ot(p) Kloten 1.93 4.44 3.00
 Jégkorong Svájc Nationalliga B 2017/2018
19:45 Visp 4 : 2 Academy Zug EVZ 1.35 5.75 5.31
19:45 Olten 6 : 4 Thurgau 1.59 4.94 3.68
20:00 GCK Lions 6 : 2 Chaux de Fonds 3.30 4.88 1.67
20:00 Ajoie 7 : 1 Biasca 1.22 7.13 6.88
 Jégkorong Svédország Allsvenskan 2017/2018
19:00 Pantern 5 : 2 AIK Stockholm 2.21 4.15 2.62
19:00 Almtuna IS 1 : 4 Tingsryds AIF 2.23 4.02 2.67
 Kézilabda Svédország Elitserien M 2017/2018
19:00 Malmö HK IFK 23 : 25 Lugi HK 1.42 10.00 3.57
 Futball Szingapúr S-League 2017
12:30 Home United 4 : 0 Young Lions 1.09 8.90 12.80
 Jégkorong Szlovákia Extraliga 2017/2018
17:00 Slovensko 20 1 : 7 Košice 8.25 6.83 1.23
 Kézilabda Szlovákia Extraliga M 2017/2018
18:30 Nové Zámky 25 : 36 Prešov - - -
 Futball UEFA Champions League 2017/2018
20:45 Sporting Lisabon 1 : 1 Juventus 4.54 3.54 1.82
20:45 Paris SG 5 : 0 Anderlecht 1.05 13.40 39.80
20:45 AS Roma 3 : 0 Chelsea 2.54 3.38 2.76
20:45 Atletico Madrid 1 : 1 Garabag-Azersun Agdam 1.13 7.95 24.20
20:45 Manchester United 2 : 0 Benfica Lisabon 1.37 4.60 9.70
20:45 Olympiakos Piraeus 0 : 0 FC Barcelona 14.60 6.60 1.20
20:45 Celtic Glasgow 1 : 2 Bayern München 8.20 5.24 1.35
20:45 FC Basel 1 : 2 CSKA Moskva 1.82 3.48 4.66

Sportstatisztikák

  • futball, kosárlabda, kézilabda és jégkorong statisztika több, mint 90 bajnokságból (eredmények, tabellák, következő mérközések, egyéb hasznos statisztikák, fogadóirodák oddsai)
  • egyéb hasznos dolgok: tippek; csapatok, illetve bajnokságok összehasonlitása; sorozatok (pl. egy csapat hány meccset nyert meg sorozatban); kiválasztások ( pl. melyik csapat nem nyert még mérközést); friss eredmények, fórum, sportfogadás.
  • az eredmények rendszeresen frissülnek, naponta többször

A funkciók részletes leirásait megtalálod a Súgóban.